sensor_id;sensor_type;location;lat;lon;timestamp;temperature;humidity
51867;DHT22;52862;52.504;13.480;2023-04-28T00:00:29;6.30;99.90
51867;DHT22;52862;52.504;13.480;2023-04-28T00:02:56;6.20;99.90
51867;DHT22;52862;52.504;13.480;2023-04-28T00:05:23;6.20;99.90
51867;DHT22;52862;52.504;13.480;2023-04-28T00:07:50;6.20;99.90
51867;DHT22;52862;52.504;13.480;2023-04-28T00:10:17;6.20;99.90
51867;DHT22;52862;52.504;13.480;2023-04-28T00:12:44;6.20;99.90
51867;DHT22;52862;52.504;13.480;2023-04-28T00:15:11;6.20;99.90
51867;DHT22;52862;52.504;13.480;2023-04-28T00:17:38;6.20;99.90
51867;DHT22;52862;52.504;13.480;2023-04-28T00:20:06;6.20;99.90
51867;DHT22;52862;52.504;13.480;2023-04-28T00:22:33;6.20;99.90
51867;DHT22;52862;52.504;13.480;2023-04-28T00:25:00;6.10;99.90
51867;DHT22;52862;52.504;13.480;2023-04-28T00:27:28;5.80;99.90
51867;DHT22;52862;52.504;13.480;2023-04-28T00:29:55;5.90;99.90
51867;DHT22;52862;52.504;13.480;2023-04-28T00:32:21;5.90;99.90
51867;DHT22;52862;52.504;13.480;2023-04-28T00:34:48;5.90;99.90
51867;DHT22;52862;52.504;13.480;2023-04-28T00:37:15;5.90;99.90
51867;DHT22;52862;52.504;13.480;2023-04-28T00:39:41;5.90;99.90
51867;DHT22;52862;52.504;13.480;2023-04-28T00:42:12;5.80;99.90
51867;DHT22;52862;52.504;13.480;2023-04-28T00:44:39;5.80;99.90
51867;DHT22;52862;52.504;13.480;2023-04-28T00:47:08;5.70;99.90
51867;DHT22;52862;52.504;13.480;2023-04-28T00:49:35;5.70;99.90
51867;DHT22;52862;52.504;13.480;2023-04-28T00:52:04;5.80;99.90
51867;DHT22;52862;52.504;13.480;2023-04-28T00:54:31;5.70;99.90
51867;DHT22;52862;52.504;13.480;2023-04-28T00:56:59;5.70;99.90
51867;DHT22;52862;52.504;13.480;2023-04-28T00:59:29;5.70;99.90
51867;DHT22;52862;52.504;13.480;2023-04-28T01:01:56;5.70;99.90
51867;DHT22;52862;52.504;13.480;2023-04-28T01:04:22;5.70;99.90
51867;DHT22;52862;52.504;13.480;2023-04-28T01:06:51;5.70;99.90
51867;DHT22;52862;52.504;13.480;2023-04-28T01:09:18;5.80;99.90
51867;DHT22;52862;52.504;13.480;2023-04-28T01:11:45;5.70;99.90
51867;DHT22;52862;52.504;13.480;2023-04-28T01:14:12;5.70;99.90
51867;DHT22;52862;52.504;13.480;2023-04-28T01:16:39;5.70;99.90
51867;DHT22;52862;52.504;13.480;2023-04-28T01:19:07;5.80;99.90
51867;DHT22;52862;52.504;13.480;2023-04-28T01:21:38;5.70;99.90
51867;DHT22;52862;52.504;13.480;2023-04-28T01:24:06;5.70;99.90
51867;DHT22;52862;52.504;13.480;2023-04-28T01:26:33;5.70;99.90
51867;DHT22;52862;52.504;13.480;2023-04-28T01:28:59;5.70;99.90
51867;DHT22;52862;52.504;13.480;2023-04-28T01:31:26;5.60;99.90
51867;DHT22;52862;52.504;13.480;2023-04-28T01:33:53;5.60;99.90
51867;DHT22;52862;52.504;13.480;2023-04-28T01:36:20;5.60;99.90
51867;DHT22;52862;52.504;13.480;2023-04-28T01:38:48;5.60;99.90
51867;DHT22;52862;52.504;13.480;2023-04-28T01:41:15;5.60;99.90
51867;DHT22;52862;52.504;13.480;2023-04-28T01:43:42;5.60;99.90
51867;DHT22;52862;52.504;13.480;2023-04-28T01:46:09;5.60;99.90
51867;DHT22;52862;52.504;13.480;2023-04-28T01:48:35;5.60;99.90
51867;DHT22;52862;52.504;13.480;2023-04-28T01:51:02;5.60;99.90
51867;DHT22;52862;52.504;13.480;2023-04-28T01:53:29;5.60;99.90
51867;DHT22;52862;52.504;13.480;2023-04-28T01:55:57;5.50;99.90
51867;DHT22;52862;52.504;13.480;2023-04-28T01:58:25;5.50;99.90
51867;DHT22;52862;52.504;13.480;2023-04-28T02:00:52;5.40;99.90
51867;DHT22;52862;52.504;13.480;2023-04-28T02:03:18;5.50;99.90
51867;DHT22;52862;52.504;13.480;2023-04-28T02:05:45;5.50;99.90
51867;DHT22;52862;52.504;13.480;2023-04-28T02:08:12;5.40;99.90
51867;DHT22;52862;52.504;13.480;2023-04-28T02:10:39;5.50;99.90
51867;DHT22;52862;52.504;13.480;2023-04-28T02:13:06;5.50;99.90
51867;DHT22;52862;52.504;13.480;2023-04-28T02:15:33;5.50;99.90
51867;DHT22;52862;52.504;13.480;2023-04-28T02:18:04;5.40;99.90
51867;DHT22;52862;52.504;13.480;2023-04-28T02:20:31;5.40;99.90
51867;DHT22;52862;52.504;13.480;2023-04-28T02:22:59;5.40;99.90
51867;DHT22;52862;52.504;13.480;2023-04-28T02:25:26;5.10;99.90
51867;DHT22;52862;52.504;13.480;2023-04-28T02:27:53;5.30;99.90
51867;DHT22;52862;52.504;13.480;2023-04-28T02:30:20;5.40;99.90
51867;DHT22;52862;52.504;13.480;2023-04-28T02:32:48;5.30;99.90
51867;DHT22;52862;52.504;13.480;2023-04-28T02:35:14;5.40;99.90
51867;DHT22;52862;52.504;13.480;2023-04-28T02:37:41;5.30;99.90
51867;DHT22;52862;52.504;13.480;2023-04-28T02:40:08;5.30;99.90
51867;DHT22;52862;52.504;13.480;2023-04-28T02:42:38;5.30;99.90
51867;DHT22;52862;52.504;13.480;2023-04-28T02:45:06;5.50;99.90
51867;DHT22;52862;52.504;13.480;2023-04-28T02:47:33;5.20;99.90
51867;DHT22;52862;52.504;13.480;2023-04-28T02:50:01;5.30;99.90
51867;DHT22;52862;52.504;13.480;2023-04-28T02:52:28;5.30;99.90
51867;DHT22;52862;52.504;13.480;2023-04-28T02:54:55;5.30;99.90
51867;DHT22;52862;52.504;13.480;2023-04-28T02:57:23;5.30;99.90
51867;DHT22;52862;52.504;13.480;2023-04-28T02:59:49;5.30;99.90
51867;DHT22;52862;52.504;13.480;2023-04-28T03:02:16;5.10;99.90
51867;DHT22;52862;52.504;13.480;2023-04-28T03:04:43;5.30;99.90
51867;DHT22;52862;52.504;13.480;2023-04-28T03:07:10;5.30;99.90
51867;DHT22;52862;52.504;13.480;2023-04-28T03:09:37;5.30;99.90
51867;DHT22;52862;52.504;13.480;2023-04-28T03:12:05;5.30;99.90
51867;DHT22;52862;52.504;13.480;2023-04-28T03:14:31;5.30;99.90
51867;DHT22;52862;52.504;13.480;2023-04-28T03:16:58;5.20;99.90
51867;DHT22;52862;52.504;13.480;2023-04-28T03:19:25;5.30;99.90
51867;DHT22;52862;52.504;13.480;2023-04-28T03:21:51;5.30;99.90
51867;DHT22;52862;52.504;13.480;2023-04-28T03:24:19;5.30;99.90
51867;DHT22;52862;52.504;13.480;2023-04-28T03:26:46;5.30;99.90
51867;DHT22;52862;52.504;13.480;2023-04-28T03:29:12;5.30;99.90
51867;DHT22;52862;52.504;13.480;2023-04-28T03:31:39;5.20;99.90
51867;DHT22;52862;52.504;13.480;2023-04-28T03:34:06;5.30;99.90
51867;DHT22;52862;52.504;13.480;2023-04-28T03:36:33;5.30;99.90
51867;DHT22;52862;52.504;13.480;2023-04-28T03:38:59;5.20;99.90
51867;DHT22;52862;52.504;13.480;2023-04-28T03:41:27;5.20;99.90
51867;DHT22;52862;52.504;13.480;2023-04-28T03:43:54;5.30;99.90
51867;DHT22;52862;52.504;13.480;2023-04-28T03:46:21;5.30;99.90
51867;DHT22;52862;52.504;13.480;2023-04-28T03:48:49;5.30;99.90
51867;DHT22;52862;52.504;13.480;2023-04-28T03:51:15;5.30;99.90
51867;DHT22;52862;52.504;13.480;2023-04-28T03:53:42;5.40;99.90
51867;DHT22;52862;52.504;13.480;2023-04-28T03:56:09;5.40;99.90
51867;DHT22;52862;52.504;13.480;2023-04-28T03:58:36;5.40;99.90
51867;DHT22;52862;52.504;13.480;2023-04-28T04:01:03;5.40;99.90
51867;DHT22;52862;52.504;13.480;2023-04-28T04:03:30;5.50;99.90
51867;DHT22;52862;52.504;13.480;2023-04-28T04:05:57;5.50;99.90
51867;DHT22;52862;52.504;13.480;2023-04-28T04:08:24;5.60;99.90
51867;DHT22;52862;52.504;13.480;2023-04-28T04:10:51;5.60;99.90
51867;DHT22;52862;52.504;13.480;2023-04-28T04:13:19;5.70;99.90
51867;DHT22;52862;52.504;13.480;2023-04-28T04:15:47;5.80;99.90
51867;DHT22;52862;52.504;13.480;2023-04-28T04:18:15;5.80;99.90
51867;DHT22;52862;52.504;13.480;2023-04-28T04:20:41;5.80;99.90
51867;DHT22;52862;52.504;13.480;2023-04-28T04:23:11;5.80;99.90
51867;DHT22;52862;52.504;13.480;2023-04-28T04:25:38;6.00;99.90
51867;DHT22;52862;52.504;13.480;2023-04-28T04:28:05;5.90;99.90
51867;DHT22;52862;52.504;13.480;2023-04-28T04:30:31;5.80;99.90
51867;DHT22;52862;52.504;13.480;2023-04-28T04:32:59;6.10;99.90
51867;DHT22;52862;52.504;13.480;2023-04-28T04:35:25;6.10;99.90
51867;DHT22;52862;52.504;13.480;2023-04-28T04:37:52;6.20;99.90
51867;DHT22;52862;52.504;13.480;2023-04-28T04:40:19;6.30;99.90
51867;DHT22;52862;52.504;13.480;2023-04-28T04:42:46;6.30;99.90
51867;DHT22;52862;52.504;13.480;2023-04-28T04:45:12;6.30;99.90
51867;DHT22;52862;52.504;13.480;2023-04-28T04:47:39;6.40;99.90
51867;DHT22;52862;52.504;13.480;2023-04-28T04:50:08;6.50;99.90
51867;DHT22;52862;52.504;13.480;2023-04-28T04:52:35;6.60;99.90
51867;DHT22;52862;52.504;13.480;2023-04-28T04:55:02;6.50;99.90
51867;DHT22;52862;52.504;13.480;2023-04-28T04:57:29;6.40;99.90
51867;DHT22;52862;52.504;13.480;2023-04-28T04:59:56;6.60;99.90
51867;DHT22;52862;52.504;13.480;2023-04-28T05:02:22;6.60;99.90
51867;DHT22;52862;52.504;13.480;2023-04-28T05:04:49;6.70;99.90
51867;DHT22;52862;52.504;13.480;2023-04-28T05:07:17;6.80;99.90
51867;DHT22;52862;52.504;13.480;2023-04-28T05:09:43;6.90;99.90
51867;DHT22;52862;52.504;13.480;2023-04-28T05:12:10;7.00;99.90
51867;DHT22;52862;52.504;13.480;2023-04-28T05:14:37;7.20;99.90
51867;DHT22;52862;52.504;13.480;2023-04-28T05:17:04;7.40;99.90
51867;DHT22;52862;52.504;13.480;2023-04-28T05:19:31;7.50;99.90
51867;DHT22;52862;52.504;13.480;2023-04-28T05:21:57;7.60;99.90
51867;DHT22;52862;52.504;13.480;2023-04-28T05:24:26;7.70;99.90
51867;DHT22;52862;52.504;13.480;2023-04-28T05:26:55;7.80;99.90
51867;DHT22;52862;52.504;13.480;2023-04-28T05:29:23;7.90;99.90
51867;DHT22;52862;52.504;13.480;2023-04-28T05:31:50;8.00;99.90
51867;DHT22;52862;52.504;13.480;2023-04-28T05:34:17;8.10;99.90
51867;DHT22;52862;52.504;13.480;2023-04-28T05:36:44;8.10;99.90
51867;DHT22;52862;52.504;13.480;2023-04-28T05:39:11;8.30;99.90
51867;DHT22;52862;52.504;13.480;2023-04-28T05:41:38;8.60;99.90
51867;DHT22;52862;52.504;13.480;2023-04-28T05:44:05;8.70;99.90
51867;DHT22;52862;52.504;13.480;2023-04-28T05:46:31;8.90;99.90
51867;DHT22;52862;52.504;13.480;2023-04-28T05:48:58;9.10;99.90
51867;DHT22;52862;52.504;13.480;2023-04-28T05:51:25;9.10;99.90
51867;DHT22;52862;52.504;13.480;2023-04-28T05:53:52;9.10;99.90
51867;DHT22;52862;52.504;13.480;2023-04-28T05:56:22;9.20;99.90
51867;DHT22;52862;52.504;13.480;2023-04-28T05:58:49;9.20;99.90
51867;DHT22;52862;52.504;13.480;2023-04-28T06:01:16;9.30;99.90
51867;DHT22;52862;52.504;13.480;2023-04-28T06:03:43;9.40;99.90
51867;DHT22;52862;52.504;13.480;2023-04-28T06:06:11;9.40;99.90
51867;DHT22;52862;52.504;13.480;2023-04-28T06:08:38;9.50;99.90
51867;DHT22;52862;52.504;13.480;2023-04-28T06:11:05;9.70;99.90
51867;DHT22;52862;52.504;13.480;2023-04-28T06:13:32;9.80;99.90
51867;DHT22;52862;52.504;13.480;2023-04-28T06:15:59;10.00;99.90
51867;DHT22;52862;52.504;13.480;2023-04-28T06:18:28;10.10;99.90
51867;DHT22;52862;52.504;13.480;2023-04-28T06:20:56;10.40;99.90
51867;DHT22;52862;52.504;13.480;2023-04-28T06:23:23;10.50;99.90
51867;DHT22;52862;52.504;13.480;2023-04-28T06:25:49;10.60;99.90
51867;DHT22;52862;52.504;13.480;2023-04-28T06:28:16;10.80;99.90
51867;DHT22;52862;52.504;13.480;2023-04-28T06:30:43;10.90;99.90
51867;DHT22;52862;52.504;13.480;2023-04-28T06:33:10;11.00;99.90
51867;DHT22;52862;52.504;13.480;2023-04-28T06:35:37;11.10;99.90
51867;DHT22;52862;52.504;13.480;2023-04-28T06:38:05;11.40;99.90
51867;DHT22;52862;52.504;13.480;2023-04-28T06:40:32;11.50;99.90
51867;DHT22;52862;52.504;13.480;2023-04-28T06:42:59;11.70;99.90
51867;DHT22;52862;52.504;13.480;2023-04-28T06:45:25;11.90;99.90
51867;DHT22;52862;52.504;13.480;2023-04-28T06:47:54;11.90;99.90
51867;DHT22;52862;52.504;13.480;2023-04-28T06:50:22;12.10;99.90
51867;DHT22;52862;52.504;13.480;2023-04-28T06:52:50;12.30;99.90
51867;DHT22;52862;52.504;13.480;2023-04-28T06:55:16;12.20;99.90
51867;DHT22;52862;52.504;13.480;2023-04-28T06:57:43;12.50;99.90
51867;DHT22;52862;52.504;13.480;2023-04-28T07:00:11;12.60;99.90
51867;DHT22;52862;52.504;13.480;2023-04-28T07:02:38;12.80;99.90
51867;DHT22;52862;52.504;13.480;2023-04-28T07:05:05;12.50;99.90
51867;DHT22;52862;52.504;13.480;2023-04-28T07:07:33;12.40;99.90
51867;DHT22;52862;52.504;13.480;2023-04-28T07:10:00;12.40;99.90
51867;DHT22;52862;52.504;13.480;2023-04-28T07:12:27;12.30;99.90
51867;DHT22;52862;52.504;13.480;2023-04-28T07:14:54;12.40;99.90
51867;DHT22;52862;52.504;13.480;2023-04-28T07:17:21;12.50;99.90
51867;DHT22;52862;52.504;13.480;2023-04-28T07:19:48;12.70;99.90
51867;DHT22;52862;52.504;13.480;2023-04-28T07:22:15;12.70;99.90
51867;DHT22;52862;52.504;13.480;2023-04-28T07:24:43;12.70;99.90
51867;DHT22;52862;52.504;13.480;2023-04-28T07:27:10;12.90;99.90
51867;DHT22;52862;52.504;13.480;2023-04-28T07:29:37;12.90;99.90
51867;DHT22;52862;52.504;13.480;2023-04-28T07:32:04;13.00;99.20
51867;DHT22;52862;52.504;13.480;2023-04-28T07:34:33;13.10;99.70
51867;DHT22;52862;52.504;13.480;2023-04-28T07:37:01;13.30;98.70
51867;DHT22;52862;52.504;13.480;2023-04-28T07:39:28;13.40;99.00
51867;DHT22;52862;52.504;13.480;2023-04-28T07:41:57;13.40;98.40
51867;DHT22;52862;52.504;13.480;2023-04-28T07:44:24;13.60;98.80
51867;DHT22;52862;52.504;13.480;2023-04-28T07:46:50;13.50;97.90
51867;DHT22;52862;52.504;13.480;2023-04-28T07:49:18;13.50;98.20
51867;DHT22;52862;52.504;13.480;2023-04-28T07:51:45;13.50;98.50
51867;DHT22;52862;52.504;13.480;2023-04-28T07:54:12;13.50;98.30
51867;DHT22;52862;52.504;13.480;2023-04-28T07:56:38;13.50;98.30
51867;DHT22;52862;52.504;13.480;2023-04-28T07:59:06;13.40;98.30
51867;DHT22;52862;52.504;13.480;2023-04-28T08:01:32;13.70;98.70
51867;DHT22;52862;52.504;13.480;2023-04-28T08:03:59;14.00;97.80
51867;DHT22;52862;52.504;13.480;2023-04-28T08:06:27;14.10;97.80
51867;DHT22;52862;52.504;13.480;2023-04-28T08:08:54;14.20;97.70
51867;DHT22;52862;52.504;13.480;2023-04-28T08:11:21;14.40;97.40
51867;DHT22;52862;52.504;13.480;2023-04-28T08:13:48;14.40;97.10
51867;DHT22;52862;52.504;13.480;2023-04-28T08:16:15;14.60;96.90
51867;DHT22;52862;52.504;13.480;2023-04-28T08:18:42;14.70;96.90
51867;DHT22;52862;52.504;13.480;2023-04-28T08:21:09;14.60;96.70
51867;DHT22;52862;52.504;13.480;2023-04-28T08:23:36;14.60;96.40
51867;DHT22;52862;52.504;13.480;2023-04-28T08:26:03;14.40;96.50
51867;DHT22;52862;52.504;13.480;2023-04-28T08:28:31;14.50;96.60
51867;DHT22;52862;52.504;13.480;2023-04-28T08:30:59;14.70;96.50
51867;DHT22;52862;52.504;13.480;2023-04-28T08:33:26;14.50;96.00
51867;DHT22;52862;52.504;13.480;2023-04-28T08:35:54;14.60;96.20
51867;DHT22;52862;52.504;13.480;2023-04-28T08:38:21;14.70;96.20
51867;DHT22;52862;52.504;13.480;2023-04-28T08:40:50;14.70;96.30
51867;DHT22;52862;52.504;13.480;2023-04-28T08:43:16;14.70;96.10
51867;DHT22;52862;52.504;13.480;2023-04-28T08:45:45;14.80;95.70
51867;DHT22;52862;52.504;13.480;2023-04-28T08:48:17;15.10;95.40
51867;DHT22;52862;52.504;13.480;2023-04-28T08:50:49;15.10;94.70
51867;DHT22;52862;52.504;13.480;2023-04-28T08:53:21;15.10;94.80
51867;DHT22;52862;52.504;13.480;2023-04-28T08:55:50;15.10;94.20
51867;DHT22;52862;52.504;13.480;2023-04-28T08:58:18;15.20;94.00
51867;DHT22;52862;52.504;13.480;2023-04-28T09:00:45;15.40;94.00
51867;DHT22;52862;52.504;13.480;2023-04-28T09:03:12;15.70;94.60
51867;DHT22;52862;52.504;13.480;2023-04-28T09:05:39;15.70;93.30
51867;DHT22;52862;52.504;13.480;2023-04-28T09:08:07;15.70;93.70
51867;DHT22;52862;52.504;13.480;2023-04-28T09:10:33;15.70;93.50
51867;DHT22;52862;52.504;13.480;2023-04-28T09:13:00;15.80;93.90
51867;DHT22;52862;52.504;13.480;2023-04-28T09:15:37;15.70;93.50
51867;DHT22;52862;52.504;13.480;2023-04-28T09:18:09;15.50;92.90
51867;DHT22;52862;52.504;13.480;2023-04-28T09:20:50;15.70;93.30
51867;DHT22;52862;52.504;13.480;2023-04-28T09:23:20;15.90;93.70
51867;DHT22;52862;52.504;13.480;2023-04-28T09:26:01;15.80;93.20
51867;DHT22;52862;52.504;13.480;2023-04-28T09:28:28;15.80;94.00
51867;DHT22;52862;52.504;13.480;2023-04-28T09:30:55;15.80;93.10
51867;DHT22;52862;52.504;13.480;2023-04-28T09:33:22;15.70;93.20
51867;DHT22;52862;52.504;13.480;2023-04-28T09:35:55;15.80;93.30
51867;DHT22;52862;52.504;13.480;2023-04-28T09:38:29;16.00;92.60
51867;DHT22;52862;52.504;13.480;2023-04-28T09:40:57;16.10;93.40
51867;DHT22;52862;52.504;13.480;2023-04-28T09:43:25;16.20;92.80
51867;DHT22;52862;52.504;13.480;2023-04-28T09:45:53;16.10;92.40
51867;DHT22;52862;52.504;13.480;2023-04-28T09:48:27;16.00;92.60
51867;DHT22;52862;52.504;13.480;2023-04-28T09:50:54;16.00;93.00
51867;DHT22;52862;52.504;13.480;2023-04-28T09:53:23;16.00;93.00
51867;DHT22;52862;52.504;13.480;2023-04-28T09:55:52;15.80;92.80
51867;DHT22;52862;52.504;13.480;2023-04-28T09:58:19;16.10;93.20
51867;DHT22;52862;52.504;13.480;2023-04-28T10:00:51;16.10;93.20
51867;DHT22;52862;52.504;13.480;2023-04-28T10:03:21;16.30;92.60
51867;DHT22;52862;52.504;13.480;2023-04-28T10:05:50;16.40;92.70
51867;DHT22;52862;52.504;13.480;2023-04-28T10:08:19;16.50;93.30
51867;DHT22;52862;52.504;13.480;2023-04-28T10:10:46;16.70;92.90
51867;DHT22;52862;52.504;13.480;2023-04-28T10:13:16;16.70;93.00
51867;DHT22;52862;52.504;13.480;2023-04-28T10:15:43;16.80;92.40
51867;DHT22;52862;52.504;13.480;2023-04-28T10:18:11;16.90;91.70
51867;DHT22;52862;52.504;13.480;2023-04-28T10:20:39;17.00;91.70
51867;DHT22;52862;52.504;13.480;2023-04-28T10:23:45;17.20;92.40
51867;DHT22;52862;52.504;13.480;2023-04-28T10:26:14;17.20;92.20
51867;DHT22;52862;52.504;13.480;2023-04-28T10:28:47;17.20;92.40
51867;DHT22;52862;52.504;13.480;2023-04-28T10:31:21;17.10;91.90
51867;DHT22;52862;52.504;13.480;2023-04-28T10:33:48;17.10;91.90
51867;DHT22;52862;52.504;13.480;2023-04-28T10:39:20;17.30;91.30
51867;DHT22;52862;52.504;13.480;2023-04-28T10:41:46;17.40;91.10
51867;DHT22;52862;52.504;13.480;2023-04-28T10:44:42;17.30;90.70
51867;DHT22;52862;52.504;13.480;2023-04-28T10:47:10;17.20;91.90
51867;DHT22;52862;52.504;13.480;2023-04-28T10:50:04;16.80;91.80
51867;DHT22;52862;52.504;13.480;2023-04-28T10:52:50;17.00;92.20
51867;DHT22;52862;52.504;13.480;2023-04-28T10:55:30;17.30;91.50
51867;DHT22;52862;52.504;13.480;2023-04-28T10:58:29;17.60;91.00
51867;DHT22;52862;52.504;13.480;2023-04-28T11:01:23;17.70;91.00
51867;DHT22;52862;52.504;13.480;2023-04-28T11:03:51;18.10;91.00
51867;DHT22;52862;52.504;13.480;2023-04-28T11:06:26;18.00;90.10
51867;DHT22;52862;52.504;13.480;2023-04-28T11:08:54;18.10;89.90
51867;DHT22;52862;52.504;13.480;2023-04-28T11:11:27;17.90;88.70
51867;DHT22;52862;52.504;13.480;2023-04-28T11:13:54;18.00;90.40
51867;DHT22;52862;52.504;13.480;2023-04-28T11:16:23;18.40;91.20
51867;DHT22;52862;52.504;13.480;2023-04-28T11:18:55;18.70;89.80
51867;DHT22;52862;52.504;13.480;2023-04-28T11:21:24;19.00;89.10
51867;DHT22;52862;52.504;13.480;2023-04-28T11:23:51;19.00;88.70
51867;DHT22;52862;52.504;13.480;2023-04-28T11:26:18;18.90;88.00
51867;DHT22;52862;52.504;13.480;2023-04-28T11:28:50;18.90;88.00
51867;DHT22;52862;52.504;13.480;2023-04-28T11:31:17;18.70;88.70
51867;DHT22;52862;52.504;13.480;2023-04-28T11:33:49;18.60;89.10
51867;DHT22;52862;52.504;13.480;2023-04-28T11:36:24;18.60;90.00
51867;DHT22;52862;52.504;13.480;2023-04-28T11:38:51;18.40;87.50
51867;DHT22;52862;52.504;13.480;2023-04-28T11:41:21;18.40;86.40
51867;DHT22;52862;52.504;13.480;2023-04-28T11:44:10;18.30;87.50
51867;DHT22;52862;52.504;13.480;2023-04-28T11:46:44;18.10;87.80
51867;DHT22;52862;52.504;13.480;2023-04-28T11:49:12;18.10;88.40
51867;DHT22;52862;52.504;13.480;2023-04-28T11:51:40;18.20;87.80
51867;DHT22;52862;52.504;13.480;2023-04-28T11:54:08;18.10;90.00
51867;DHT22;52862;52.504;13.480;2023-04-28T11:56:38;18.00;89.80
51867;DHT22;52862;52.504;13.480;2023-04-28T11:59:06;18.20;89.80
51867;DHT22;52862;52.504;13.480;2023-04-28T12:01:35;18.20;89.60
51867;DHT22;52862;52.504;13.480;2023-04-28T12:04:12;18.20;88.60
51867;DHT22;52862;52.504;13.480;2023-04-28T12:06:39;18.10;88.80
51867;DHT22;52862;52.504;13.480;2023-04-28T12:09:16;18.30;89.10
51867;DHT22;52862;52.504;13.480;2023-04-28T12:11:54;18.50;88.50
51867;DHT22;52862;52.504;13.480;2023-04-28T12:14:22;18.80;88.30
51867;DHT22;52862;52.504;13.480;2023-04-28T12:16:48;18.80;87.10
51867;DHT22;52862;52.504;13.480;2023-04-28T12:19:17;18.80;87.00
51867;DHT22;52862;52.504;13.480;2023-04-28T12:21:58;18.70;88.30
51867;DHT22;52862;52.504;13.480;2023-04-28T12:24:26;19.10;87.30
51867;DHT22;52862;52.504;13.480;2023-04-28T12:26:53;19.20;88.40
51867;DHT22;52862;52.504;13.480;2023-04-28T12:29:36;19.50;87.80
51867;DHT22;52862;52.504;13.480;2023-04-28T12:32:07;19.50;85.80
51867;DHT22;52862;52.504;13.480;2023-04-28T12:34:35;19.70;86.30
51867;DHT22;52862;52.504;13.480;2023-04-28T12:37:03;19.60;86.10
51867;DHT22;52862;52.504;13.480;2023-04-28T12:39:31;19.70;86.20
51867;DHT22;52862;52.504;13.480;2023-04-28T12:41:58;19.50;85.60
51867;DHT22;52862;52.504;13.480;2023-04-28T12:44:34;19.50;87.00
51867;DHT22;52862;52.504;13.480;2023-04-28T12:47:02;19.50;86.40
51867;DHT22;52862;52.504;13.480;2023-04-28T12:49:29;19.50;86.90
51867;DHT22;52862;52.504;13.480;2023-04-28T12:51:57;19.30;87.40
51867;DHT22;52862;52.504;13.480;2023-04-28T12:54:24;19.20;87.00
51867;DHT22;52862;52.504;13.480;2023-04-28T12:56:50;19.10;87.10
51867;DHT22;52862;52.504;13.480;2023-04-28T12:59:17;18.80;87.20
51867;DHT22;52862;52.504;13.480;2023-04-28T13:01:44;18.70;87.80
51867;DHT22;52862;52.504;13.480;2023-04-28T13:04:11;18.60;87.80
51867;DHT22;52862;52.504;13.480;2023-04-28T13:06:38;18.40;88.00
51867;DHT22;52862;52.504;13.480;2023-04-28T13:09:10;18.30;88.50
51867;DHT22;52862;52.504;13.480;2023-04-28T13:11:36;18.30;88.90
51867;DHT22;52862;52.504;13.480;2023-04-28T13:14:18;18.40;89.50
51867;DHT22;52862;52.504;13.480;2023-04-28T13:16:48;18.40;88.30
51867;DHT22;52862;52.504;13.480;2023-04-28T13:19:14;18.30;89.30
51867;DHT22;52862;52.504;13.480;2023-04-28T13:21:42;18.20;90.10
51867;DHT22;52862;52.504;13.480;2023-04-28T13:24:10;18.10;90.40
51867;DHT22;52862;52.504;13.480;2023-04-28T13:26:37;18.10;89.30
51867;DHT22;52862;52.504;13.480;2023-04-28T13:29:04;18.10;89.20
51867;DHT22;52862;52.504;13.480;2023-04-28T13:31:31;18.10;89.90
51867;DHT22;52862;52.504;13.480;2023-04-28T13:33:57;18.10;90.10
51867;DHT22;52862;52.504;13.480;2023-04-28T13:36:27;18.10;90.00
51867;DHT22;52862;52.504;13.480;2023-04-28T13:38:55;18.10;89.80
51867;DHT22;52862;52.504;13.480;2023-04-28T13:41:22;18.00;90.20
51867;DHT22;52862;52.504;13.480;2023-04-28T13:43:49;18.00;91.00
51867;DHT22;52862;52.504;13.480;2023-04-28T13:46:17;18.00;91.00
51867;DHT22;52862;52.504;13.480;2023-04-28T13:48:44;17.80;91.10
51867;DHT22;52862;52.504;13.480;2023-04-28T13:51:11;17.70;91.20
51867;DHT22;52862;52.504;13.480;2023-04-28T13:53:38;17.60;91.70
51867;DHT22;52862;52.504;13.480;2023-04-28T13:56:06;17.30;92.10
51867;DHT22;52862;52.504;13.480;2023-04-28T13:58:34;17.40;93.70
51867;DHT22;52862;52.504;13.480;2023-04-28T14:01:01;17.20;93.90
51867;DHT22;52862;52.504;13.480;2023-04-28T14:03:34;17.00;94.80
51867;DHT22;52862;52.504;13.480;2023-04-28T14:06:01;16.90;95.50
51867;DHT22;52862;52.504;13.480;2023-04-28T14:08:28;16.70;96.30
51867;DHT22;52862;52.504;13.480;2023-04-28T14:10:55;16.70;96.60
51867;DHT22;52862;52.504;13.480;2023-04-28T14:13:22;16.80;96.70
51867;DHT22;52862;52.504;13.480;2023-04-28T14:15:56;16.80;97.00
51867;DHT22;52862;52.504;13.480;2023-04-28T14:18:25;16.70;97.30
51867;DHT22;52862;52.504;13.480;2023-04-28T14:20:53;16.70;96.80
51867;DHT22;52862;52.504;13.480;2023-04-28T14:23:19;16.70;96.40
51867;DHT22;52862;52.504;13.480;2023-04-28T14:25:46;16.60;97.80
51867;DHT22;52862;52.504;13.480;2023-04-28T14:28:13;16.40;97.70
51867;DHT22;52862;52.504;13.480;2023-04-28T14:30:40;16.50;98.20
51867;DHT22;52862;52.504;13.480;2023-04-28T14:33:08;16.50;98.20
51867;DHT22;52862;52.504;13.480;2023-04-28T14:35:35;16.50;97.90
51867;DHT22;52862;52.504;13.480;2023-04-28T14:38:02;16.40;98.10
51867;DHT22;52862;52.504;13.480;2023-04-28T14:40:29;16.30;98.80
51867;DHT22;52862;52.504;13.480;2023-04-28T14:42:56;16.30;98.10
51867;DHT22;52862;52.504;13.480;2023-04-28T14:45:26;16.20;98.50
51867;DHT22;52862;52.504;13.480;2023-04-28T14:47:52;16.10;99.50
51867;DHT22;52862;52.504;13.480;2023-04-28T14:50:20;16.20;98.70
51867;DHT22;52862;52.504;13.480;2023-04-28T14:52:47;16.10;98.70
51867;DHT22;52862;52.504;13.480;2023-04-28T14:55:14;16.10;98.60
51867;DHT22;52862;52.504;13.480;2023-04-28T14:57:41;16.10;98.70
51867;DHT22;52862;52.504;13.480;2023-04-28T15:00:09;16.10;98.30
51867;DHT22;52862;52.504;13.480;2023-04-28T15:02:36;16.00;98.60
51867;DHT22;52862;52.504;13.480;2023-04-28T15:05:04;16.10;98.80
51867;DHT22;52862;52.504;13.480;2023-04-28T15:07:32;16.10;98.10
51867;DHT22;52862;52.504;13.480;2023-04-28T15:09:59;16.20;98.30
51867;DHT22;52862;52.504;13.480;2023-04-28T15:12:26;16.20;97.90
51867;DHT22;52862;52.504;13.480;2023-04-28T15:14:55;16.20;97.70
51867;DHT22;52862;52.504;13.480;2023-04-28T15:17:22;16.10;97.70
51867;DHT22;52862;52.504;13.480;2023-04-28T15:19:50;16.20;98.30
51867;DHT22;52862;52.504;13.480;2023-04-28T15:22:17;16.30;98.20
51867;DHT22;52862;52.504;13.480;2023-04-28T15:24:45;16.40;98.40
51867;DHT22;52862;52.504;13.480;2023-04-28T15:27:12;16.60;98.10
51867;DHT22;52862;52.504;13.480;2023-04-28T15:29:39;16.60;98.30
51867;DHT22;52862;52.504;13.480;2023-04-28T15:32:06;16.60;97.40